Airfield :
LOGIN :

Register | Disclaimer

   EN    FR    IT 

 










Legend :    VFR   Marginal VFR   IFR   Intensive IFR   Very Intensive IFR
Visi :
Ceiling :
>= 8 km
>= 3000ft
5 to 8 km
1000 to 3000 ft
1500m to 5 km
500 to 1000 ft
800 to 1500m
200 to 500 ft
< 800m
< 200 ft
Symbols :   Thunderstorms  Fog  Heavy snow  Heavy precipitations  Wind > 20 kt
SIGMETs :     Misc.  Thunderstorms  Icing  Turbulence  Mountain Waves  Volcanic Ashes







- Airport Elevation : 348 ft
- IATA code : LDV
- Download approach charts


LFRJ - Landivisiau

CURRENT METAR :
  • 210630Z AUTO 16004KT 9999 FEW027 BKN037 15/15 Q1022

EXPIRED METARs :
  • 210600Z AUTO 15004KT 8000 OVC038 15/15 Q1021
  • 210530Z AUTO 17004KT 3500 BR FEW002 BKN037 14/14 Q1021
  • 210500Z AUTO 20002KT 0600 0400 R26/1100U R08/0600U FG VV/// 14/14 Q1021
  • 210430Z AUTO 18003KT 0450 R26/0550N R08/0500N FG VV/// 14/13 Q1021
  • 210400Z AUTO 18004KT 0400 0350 R26/0400D R08/0650U FG VV/// 13/13 Q1020

Expired Forecast.
No reported NOTAMs for that airfield.



MET'MAP, your aeronautical weather chart ! - Copyright ORBIFLY December 2007 - Disclaimer

ORBIFLY MET'MAP TEAM :

Programming & Development : Alexandra Zaïnal
Concept & Development : Baudouin d'Aumeries
Co-Development & Prog : Marc-Olivier Méhu
Technical & hardware support : Manuel Goepfert

Contact : metmap@orbifly.com




SOURCES & CREDITS :

   NOAA